Time;durP1;ratioP1;P1;durP2;ratioP2;P2;SDS_P1;SDS_P2;PMS_P1;PMS_P2;Temp;Humidity;BMP_temperature;BMP_pressure;BME280_temperature;BME280_humidity;BME280_pressure;Samples;Min_cycle;Max_cycle;Signal;HPM_P1;HPM_P2
2023/09/02 00:02:02;;;;;;;10.40;8.82;;;;;;;17.07;100.00;93490.22;5028845;28;20056;-78
2023/09/02 00:04:29;;;;;;;11.63;8.90;;;;;;;17.00;100.00;93489.59;5017093;28;20072;-78
2023/09/02 00:06:57;;;;;;;10.48;8.50;;;;;;;16.96;100.00;93491.91;5009952;28;20110;-79
2023/09/02 00:09:24;;;;;;;10.30;8.85;;;;;;;16.90;100.00;93498.06;5011316;28;20045;-78
2023/09/02 00:11:50;;;;;;;11.70;9.55;;;;;;;16.84;100.00;93497.22;5014695;28;20061;-78
2023/09/02 00:14:17;;;;;;;12.15;9.55;;;;;;;16.79;100.00;93490.16;5018156;28;20096;-78
2023/09/02 00:16:44;;;;;;;11.63;9.60;;;;;;;16.77;100.00;93497.41;5015287;28;20045;-78
2023/09/02 00:19:11;;;;;;;11.05;9.23;;;;;;;16.74;100.00;93497.09;5018217;28;20045;-78
2023/09/02 00:21:38;;;;;;;10.35;8.35;;;;;;;16.69;100.00;93496.03;5012406;28;20050;-78
2023/09/02 00:24:06;;;;;;;11.18;8.98;;;;;;;16.62;100.00;93495.38;5013793;28;20396;-78
2023/09/02 00:26:33;;;;;;;10.65;9.27;;;;;;;15.80;100.00;93381.00;5019748;28;20103;-78
2023/09/02 00:29:01;;;;;;;14.95;9.90;;;;;;;16.53;100.00;93500.19;5009594;28;20092;-78
2023/09/02 00:31:29;;;;;;;11.30;9.80;;;;;;;16.46;100.00;93491.81;5014561;28;20055;-78
2023/09/02 00:33:56;;;;;;;10.82;9.48;;;;;;;16.45;100.00;93486.88;5012038;28;20127;-78
2023/09/02 00:36:23;;;;;;;11.18;9.38;;;;;;;16.39;100.00;93491.97;5011603;28;20499;-79
2023/09/02 00:38:49;;;;;;;10.52;9.20;;;;;;;16.34;100.00;93491.16;5017908;28;20570;-78
2023/09/02 00:41:25;;;;;;;11.98;9.48;;;;;;;16.29;100.00;93495.22;5019271;28;20045;-78
2023/09/02 00:43:53;;;;;;;;;;;;;;;16.33;100.00;93502.53;5018613;28;20097;-78
2023/09/02 00:46:22;;;;;;;12.70;10.18;;;;;;;16.24;100.00;93502.94;5014931;28;20333;-78
2023/09/02 00:48:49;;;;;;;12.95;10.68;;;;;;;16.19;100.00;93496.91;5007814;28;20108;-78
2023/09/02 00:51:16;;;;;;;11.40;9.48;;;;;;;16.22;100.00;93504.97;5015421;28;20498;-78
2023/09/02 00:53:44;;;;;;;11.52;9.65;;;;;;;16.09;100.00;93494.91;5016748;28;20483;-77
2023/09/02 00:56:12;;;;;;;12.10;9.68;;;;;;;16.14;100.00;93506.16;5012169;28;20436;-78
2023/09/02 00:58:44;;;;;;;12.88;10.05;;;;;;;16.13;100.00;93508.97;5012777;28;20380;-78
2023/09/02 01:01:12;;;;;;;12.75;10.10;;;;;;;16.14;100.00;93506.16;5016560;28;20455;-78
2023/09/02 01:03:40;;;;;;;13.30;10.10;;;;;;;16.12;100.00;93508.19;5015373;28;20104;-84
2023/09/02 01:06:08;;;;;;;11.27;9.52;;;;;;;16.08;100.00;93503.72;5014721;28;20037;-86
2023/09/02 01:08:34;;;;;;;15.45;10.60;;;;;;;15.31;100.00;93408.25;5007923;28;20042;-85
2023/09/02 01:11:04;;;;;;;14.30;10.57;;;;;;;15.97;100.00;93500.22;5016674;28;20056;-85
2023/09/02 01:13:33;;;;;;;11.90;9.25;;;;;;;15.94;100.00;93503.25;5015234;28;20683;-86
2023/09/02 01:16:02;;;;;;;12.80;10.15;;;;;;;15.90;100.00;93502.91;5014487;28;20046;-85
2023/09/02 01:18:35;;;;;;;15.68;10.77;;;;;;;15.88;100.00;93507.56;5018463;28;20050;-85
2023/09/02 01:21:39;;;;;;;13.38;10.13;;;;;;;15.83;100.00;93508.25;5009331;28;20045;-85
2023/09/02 01:24:45;;;;;;;12.90;10.43;;;;;;;15.74;100.00;93502.66;5015873;28;20054;-86
2023/09/02 01:27:19;;;;;;;15.77;10.77;;;;;;;15.73;100.00;93506.28;4990241;28;20923;-85
2023/09/02 01:29:55;;;;;;;13.63;10.50;;;;;;;15.63;100.00;93495.75;5015774;28;20779;-85
2023/09/02 01:32:25;;;;;;;15.88;11.18;;;;;;;15.66;100.00;93503.06;5016149;28;20041;-88
2023/09/02 01:34:55;;;;;;;13.43;10.65;;;;;;;15.43;100.00;93470.31;5011175;28;20580;-88
2023/09/02 01:37:27;;;;;;;13.50;10.50;;;;;;;15.66;100.00;93504.84;5014054;28;20052;-87
2023/09/02 01:40:01;;;;;;;14.13;10.80;;;;;;;15.52;100.00;93484.44;5015534;28;20135;-88
2023/09/02 01:42:32;;;;;;;14.32;11.20;;;;;;;15.43;100.00;93478.06;5016637;28;20464;-88
2023/09/02 01:45:00;;;;;;;14.07;11.45;;;;;;;15.65;100.00;93513.66;5011169;28;20522;-88
2023/09/02 01:47:28;;;;;;;16.00;11.80;;;;;;;15.42;100.00;93481.69;5015597;28;20499;-85
2023/09/02 01:49:55;;;;;;;17.38;11.55;;;;;;;15.43;100.00;93499.56;5016764;28;20045;-84
2023/09/02 01:52:23;;;;;;;17.00;12.27;;;;;;;15.48;100.00;93517.78;5015524;28;20041;-83
2023/09/02 01:54:53;;;;;;;16.00;11.75;;;;;;;15.25;100.00;93482.44;5014002;28;20057;-85
2023/09/02 01:57:20;;;;;;;15.85;11.43;;;;;;;15.42;100.00;93517.91;5015725;28;20084;-84
2023/09/02 01:59:48;;;;;;;16.08;11.27;;;;;;;15.14;100.00;93478.09;5017856;28;20041;-80
2023/09/02 02:02:18;;;;;;;17.27;11.05;;;;;;;15.38;100.00;93509.03;5016537;28;20104;-84
2023/09/02 02:04:51;;;;;;;16.85;12.00;;;;;;;15.37;100.00;93508.28;5011555;28;20045;-85
2023/09/02 02:07:21;;;;;;;16.83;11.60;;;;;;;15.35;100.00;93510.28;5011475;28;20100;-85
2023/09/02 02:09:54;;;;;;;18.67;12.00;;;;;;;15.20;100.00;93488.31;5015849;28;20073;-84
2023/09/02 02:12:21;;;;;;;16.17;11.60;;;;;;;15.26;100.00;93509.88;5014467;28;20879;-84
2023/09/02 02:14:49;;;;;;;16.63;12.07;;;;;;;15.28;100.00;93514.81;5013643;28;20048;-85
2023/09/02 02:17:16;;;;;;;16.30;10.98;;;;;;;15.26;100.00;93519.44;5014959;28;20045;-82
2023/09/02 02:19:44;;;;;;;15.77;10.95;;;;;;;15.27;100.00;93523.59;5009727;28;20053;-84
2023/09/02 02:22:13;;;;;;;15.93;11.60;;;;;;;15.28;100.00;93518.19;5015627;28;20057;-84
2023/09/02 02:24:43;;;;;;;16.75;12.07;;;;;;;14.99;100.00;93476.78;5015102;28;20041;-85
2023/09/02 02:27:10;;;;;;;16.58;12.07;;;;;;;15.16;100.00;93505.31;5013139;28;20500;-85
2023/09/02 02:29:36;;;;;;;17.58;12.13;;;;;;;15.23;100.00;93515.53;5013306;28;20073;-85
2023/09/02 02:32:05;;;;;;;17.48;11.77;;;;;;;15.24;100.00;93514.50;5014312;28;20435;-85
2023/09/02 02:34:33;;;;;;;17.40;12.93;;;;;;;15.19;100.00;93514.41;5018310;28;20045;-85
2023/09/02 02:37:00;;;;;;;20.60;13.70;;;;;;;14.93;100.00;93480.28;5016288;28;20059;-85
2023/09/02 02:39:29;;;;;;;20.02;13.85;;;;;;;15.02;100.00;93509.97;5013374;28;20700;-84
2023/09/02 02:41:56;;;;;;;21.95;13.18;;;;;;;15.01;100.00;93510.97;5007180;28;20046;-85
2023/09/02 02:44:23;;;;;;;19.33;14.25;;;;;;;15.02;100.00;93507.38;5006939;28;20056;-85
2023/09/02 02:46:49;;;;;;;21.02;13.32;;;;;;;14.60;100.00;93442.91;5014817;28;20462;-85
2023/09/02 02:49:19;;;;;;;19.48;13.57;;;;;;;14.96;100.00;93500.53;5013259;28;20075;-85
2023/09/02 02:51:53;;;;;;;20.55;13.90;;;;;;;14.91;100.00;93508.19;5010713;28;20406;-82
2023/09/02 02:54:20;;;;;;;21.42;14.25;;;;;;;14.87;100.00;93507.88;5006701;28;20407;-83
2023/09/02 02:56:47;;;;;;;20.88;14.00;;;;;;;14.70;100.00;93490.44;5018067;28;20467;-82
2023/09/02 02:59:14;;;;;;;20.77;13.88;;;;;;;14.62;100.00;93487.44;5015085;28;20088;-82
2023/09/02 03:01:40;;;;;;;20.67;13.85;;;;;;;14.79;100.00;93508.22;5015836;28;20041;-83
2023/09/02 03:04:08;;;;;;;19.67;13.85;;;;;;;14.80;100.00;93515.75;5017146;28;20100;-84
2023/09/02 03:06:39;;;;;;;19.70;13.95;;;;;;;14.81;100.00;93512.13;5018560;28;20097;-84
2023/09/02 03:09:10;;;;;;;19.70;13.63;;;;;;;14.72;100.00;93497.94;5006117;28;20042;-84
2023/09/02 03:11:39;;;;;;;21.98;13.80;;;;;;;14.81;100.00;93513.94;5010698;28;20415;-85
2023/09/02 03:14:11;;;;;;;20.88;13.80;;;;;;;14.81;100.00;93506.16;5014031;28;20088;-85
2023/09/02 03:16:42;;;;;;;19.73;13.98;;;;;;;14.78;100.00;93515.19;5010792;28;20049;-83
2023/09/02 03:19:08;;;;;;;23.50;15.00;;;;;;;14.70;100.00;93498.19;5012440;28;20096;-85
2023/09/02 03:21:41;;;;;;;20.80;13.98;;;;;;;14.76;100.00;93511.25;5008375;28;20049;-82
2023/09/02 03:24:08;;;;;;;20.52;13.60;;;;;;;14.74;100.00;93508.88;5011788;28;20053;-82
2023/09/02 03:26:34;;;;;;;21.17;14.20;;;;;;;14.62;100.00;93490.00;5006113;28;20057;-82
2023/09/02 03:29:01;;;;;;;19.70;14.77;;;;;;;14.60;100.00;93494.59;5018403;28;20041;-82
2023/09/02 03:31:28;;;;;;;21.02;14.45;;;;;;;14.70;100.00;93500.00;5019317;28;20049;-82
2023/09/02 03:33:55;;;;;;;21.23;14.23;;;;;;;14.43;100.00;93495.31;5020367;28;20500;-84
2023/09/02 03:36:21;;;;;;;22.83;13.80;;;;;;;14.60;100.00;93508.34;5021431;28;20091;-83
2023/09/02 03:38:49;;;;;;;19.40;14.13;;;;;;;14.57;100.00;93522.50;5020769;28;20046;-84
2023/09/02 03:41:18;;;;;;;19.35;13.60;;;;;;;14.41;100.00;93505.84;5018476;28;20045;-85
2023/09/02 03:43:45;;;;;;;19.85;12.40;;;;;;;14.44;100.00;93530.47;5019493;28;20041;-83
2023/09/02 03:46:11;;;;;;;21.73;13.60;;;;;;;14.43;100.00;93528.91;5017995;28;20129;-83
2023/09/02 03:48:38;;;;;;;23.25;13.50;;;;;;;14.38;100.00;93526.19;5019088;28;20052;-84
2023/09/02 03:51:11;;;;;;;22.17;14.05;;;;;;;14.30;100.00;93519.56;5020643;28;20084;-84
2023/09/02 03:53:38;;;;;;;21.25;13.98;;;;;;;14.26;100.00;93521.06;5019473;28;20450;-83
2023/09/02 03:56:06;;;;;;;21.63;13.38;;;;;;;14.34;100.00;93525.88;5011604;28;20096;-83
2023/09/02 03:58:33;;;;;;;25.42;14.50;;;;;;;14.38;100.00;93528.78;5014879;28;20054;-83
2023/09/02 04:01:01;;;;;;;21.25;13.77;;;;;;;14.37;100.00;93528.00;5015768;28;20046;-82
2023/09/02 04:03:29;;;;;;;23.55;14.27;;;;;;;14.39;100.00;93535.53;5017487;28;20104;-82
2023/09/02 04:06:00;;;;;;;19.52;13.07;;;;;;;14.22;100.00;93501.84;5011136;28;20093;-82
2023/09/02 04:08:27;;;;;;;20.08;14.23;;;;;;;14.37;100.00;93525.44;5016757;28;20424;-83
2023/09/02 04:10:55;;;;;;;20.75;14.32;;;;;;;14.44;100.00;93533.06;5019271;28;20046;-83
2023/09/02 04:13:25;;;;;;;21.58;13.45;;;;;;;14.34;100.00;93517.34;5016120;28;20046;-83
2023/09/02 04:15:53;;;;;;;22.75;14.50;;;;;;;14.45;100.00;93537.22;5019593;28;20057;-83
2023/09/02 04:18:20;;;;;;;20.25;14.52;;;;;;;14.41;100.00;93536.88;5017552;28;20042;-83
2023/09/02 04:20:46;;;;;;;19.67;13.32;;;;;;;14.28;100.00;93516.44;5012279;28;20056;-83
2023/09/02 04:23:13;;;;;;;22.48;14.05;;;;;;;14.43;100.00;93536.66;5014332;28;20049;-83
2023/09/02 04:25:46;;;;;;;19.23;13.23;;;;;;;14.47;100.00;93536.97;5011427;28;20596;-84
2023/09/02 04:28:13;;;;;;;26.55;13.82;;;;;;;14.46;100.00;93532.84;5011668;28;20045;-83
2023/09/02 04:30:42;;;;;;;24.73;13.45;;;;;;;14.44;100.00;93538.22;5011658;28;20451;-84
2023/09/02 04:33:11;;;;;;;29.63;14.50;;;;;;;14.47;100.00;93537.78;5010007;28;20057;-83
2023/09/02 04:35:38;;;;;;;24.15;14.38;;;;;;;14.48;100.00;93539.34;5010125;28;20470;-83
2023/09/02 04:38:06;;;;;;;20.63;14.15;;;;;;;14.51;100.00;93538.91;5011002;28;20447;-81
2023/09/02 04:40:33;;;;;;;22.65;13.70;;;;;;;14.51;100.00;93532.94;5008495;28;20112;-80
2023/09/02 04:42:59;;;;;;;21.10;13.35;;;;;;;14.54;100.00;93550.59;5015282;28;20141;-81
2023/09/02 04:45:26;;;;;;;23.02;13.85;;;;;;;14.56;100.00;93551.16;5017227;28;20419;-81
2023/09/02 04:47:55;;;;;;;24.75;13.88;;;;;;;14.60;100.00;93547.09;5014794;28;20081;-81
2023/09/02 04:50:21;;;;;;;24.60;14.20;;;;;;;14.61;100.00;93556.44;5016339;28;20495;-80
2023/09/02 04:52:49;;;;;;;21.25;15.40;;;;;;;14.63;100.00;93548.47;5019025;28;20107;-79
2023/09/02 04:55:16;;;;;;;24.33;15.00;;;;;;;14.68;100.00;93546.75;5013576;28;20056;-79
2023/09/02 04:57:43;;;;;;;19.35;13.35;;;;;;;14.70;100.00;93549.91;5017342;28;20045;-79
2023/09/02 05:00:10;;;;;;;18.33;12.93;;;;;;;14.73;100.00;93540.13;5010387;28;20049;-79
2023/09/02 05:02:37;;;;;;;17.73;12.57;;;;;;;14.80;100.00;93548.56;5019063;28;20096;-79
2023/09/02 05:05:06;;;;;;;19.55;14.05;;;;;;;14.63;100.00;93515.63;5016108;28;20424;-81
2023/09/02 05:07:33;;;;;;;19.45;13.82;;;;;;;14.90;100.00;93545.41;5019945;28;20057;-80
2023/09/02 05:09:59;;;;;;;19.52;13.65;;;;;;;14.88;100.00;93535.31;5017028;28;20100;-80
2023/09/02 05:12:27;;;;;;;17.90;12.85;;;;;;;15.00;100.00;93539.66;5017722;28;20042;-80
2023/09/02 05:14:54;;;;;;;19.92;12.90;;;;;;;15.15;100.00;93547.72;5015714;28;20408;-80
2023/09/02 05:17:20;;;;;;;22.00;14.13;;;;;;;15.18;100.00;93549.84;5018029;28;20041;-80
2023/09/02 05:19:47;;;;;;;19.42;13.70;;;;;;;15.29;100.00;93553.41;5018743;28;20060;-80
2023/09/02 05:22:15;;;;;;;19.08;13.35;;;;;;;15.39;100.00;93554.59;5014343;28;20460;-81
2023/09/02 05:24:42;;;;;;;21.60;13.05;;;;;;;15.44;100.00;93555.50;5018480;28;20042;-81
2023/09/02 05:27:09;;;;;;;21.92;12.77;;;;;;;15.45;100.00;93544.13;5017651;28;20045;-81
2023/09/02 05:29:35;;;;;;;18.30;12.82;;;;;;;15.68;100.00;93549.41;5006497;28;20132;-81
2023/09/02 05:32:02;;;;;;;22.65;13.75;;;;;;;15.65;100.00;93526.59;5016897;28;20056;-80
2023/09/02 05:34:29;;;;;;;16.77;12.30;;;;;;;15.85;100.00;93546.88;5015714;28;20049;-81
2023/09/02 05:36:56;;;;;;;17.67;13.38;;;;;;;15.95;100.00;93548.88;5014154;28;20053;-81
2023/09/02 05:39:24;;;;;;;19.48;13.35;;;;;;;15.99;100.00;93545.59;5017841;28;20438;-81
2023/09/02 05:41:51;;;;;;;19.52;13.25;;;;;;;16.00;100.00;93538.59;5016888;28;20100;-81
2023/09/02 05:44:17;;;;;;;18.55;13.55;;;;;;;16.11;100.00;93549.91;5014454;28;20100;-81
2023/09/02 05:46:44;;;;;;;21.20;14.18;;;;;;;16.13;100.00;93550.44;5014557;28;20518;-80
2023/09/02 05:49:12;;;;;;;19.20;12.85;;;;;;;15.94;100.00;93503.25;5017013;28;20046;-80
2023/09/02 05:51:39;;;;;;;18.85;13.15;;;;;;;16.36;100.00;93546.13;5010187;28;20054;-80
2023/09/02 05:54:08;;;;;;;19.20;13.20;;;;;;;16.50;100.00;93547.38;5007430;28;20661;-80
2023/09/02 05:56:36;;;;;;;21.23;12.85;;;;;;;16.67;100.00;93552.50;5012515;28;20071;-80
2023/09/02 05:59:03;;;;;;;18.95;12.52;;;;;;;16.78;100.00;93539.69;5015666;28;20100;-81
2023/09/02 06:01:30;;;;;;;17.40;12.50;;;;;;;16.96;100.00;93551.59;5013269;28;20050;-79
2023/09/02 06:03:57;;;;;;;19.77;12.80;;;;;;;16.94;100.00;93532.91;5015645;28;20100;-80
2023/09/02 06:06:25;;;;;;;25.75;13.02;;;;;;;17.13;100.00;93556.75;5014507;28;20088;-81
2023/09/02 06:08:53;;;;;;;22.52;15.95;;;;;;;17.22;100.00;93550.09;5003182;28;20046;-81
2023/09/02 06:11:20;;;;;;;26.83;17.17;;;;;;;17.45;100.00;93557.91;5008847;28;20074;-81
2023/09/02 06:13:48;;;;;;;34.20;19.85;;;;;;;17.67;100.00;93567.47;5013890;28;20049;-83
2023/09/02 06:16:15;;;;;;;37.92;22.15;;;;;;;17.76;100.00;93571.16;5013567;28;20104;-80
2023/09/02 06:18:42;;;;;;;33.55;19.25;;;;;;;17.86;100.00;93570.47;5014749;28;20119;-82
2023/09/02 06:21:10;;;;;;;26.55;17.13;;;;;;;17.86;100.00;93555.69;5016801;28;20050;-80
2023/09/02 06:23:41;;;;;;;25.73;14.95;;;;;;;18.00;100.00;93574.25;5015030;28;20108;-85
2023/09/02 06:26:08;;;;;;;23.48;14.77;;;;;;;18.10;100.00;93557.97;5008912;28;20516;-80
2023/09/02 06:28:34;;;;;;;26.15;15.27;;;;;;;18.12;100.00;93563.72;5014732;28;20091;-80
2023/09/02 06:31:07;;;;;;;26.48;15.15;;;;;;;18.16;100.00;93553.63;5008035;28;20107;-79
2023/09/02 06:33:33;;;;;;;21.92;14.07;;;;;;;18.37;100.00;93567.56;5014975;28;20038;-79
2023/09/02 06:36:00;;;;;;;21.83;13.43;;;;;;;18.57;100.00;93563.53;5016055;28;20047;-80
2023/09/02 06:38:27;;;;;;;20.60;12.73;;;;;;;18.77;100.00;93564.66;5013101;28;20466;-79
2023/09/02 06:40:54;;;;;;;19.45;11.05;;;;;;;19.02;100.00;93564.00;5007236;28;20512;-78
2023/09/02 06:43:26;;;;;;;14.90;10.35;;;;;;;19.22;96.12;93567.78;5015992;28;20069;-79
2023/09/02 06:45:52;;;;;;;16.92;11.63;;;;;;;19.44;94.46;93566.81;5015208;28;20396;-80
2023/09/02 06:48:20;;;;;;;15.30;10.63;;;;;;;19.45;94.94;93530.06;5015893;28;20088;-80
2023/09/02 06:50:47;;;;;;;17.35;11.27;;;;;;;19.89;93.75;93567.16;5015492;28;20088;-79
2023/09/02 06:53:14;;;;;;;15.07;9.45;;;;;;;19.88;90.25;93558.56;5016071;28;20130;-79
2023/09/02 06:55:41;;;;;;;12.32;9.10;;;;;;;20.12;88.85;93562.50;5016359;28;20519;-79
2023/09/02 06:58:07;;;;;;;12.05;9.32;;;;;;;20.23;89.41;93569.28;5013406;28;20088;-79
2023/09/02 07:00:36;;;;;;;14.30;9.30;;;;;;;20.05;88.44;93568.00;5014484;28;20092;-78
2023/09/02 07:03:02;;;;;;;12.55;9.40;;;;;;;20.20;88.35;93577.66;5012759;28;20124;-78
2023/09/02 07:05:30;;;;;;;12.80;8.18;;;;;;;20.18;86.96;93563.31;5016998;28;20046;-78
2023/09/02 07:07:59;;;;;;;12.98;9.55;;;;;;;20.41;87.83;93564.63;5020252;28;20107;-79
2023/09/02 07:10:26;;;;;;;14.35;9.48;;;;;;;20.69;86.21;93578.16;5016814;28;20124;-79
2023/09/02 07:12:53;;;;;;;10.98;8.23;;;;;;;20.91;84.32;93580.47;5017170;28;20057;-78
2023/09/02 07:15:20;;;;;;;11.07;8.13;;;;;;;20.95;84.63;93575.50;5019034;28;20457;-78
2023/09/02 07:17:47;;;;;;;10.35;7.72;;;;;;;21.14;82.39;93575.69;5014188;28;20407;-78
2023/09/02 07:20:14;;;;;;;12.02;8.70;;;;;;;20.93;83.71;93580.97;5015534;28;20456;-78
2023/09/02 07:22:42;;;;;;;10.98;7.80;;;;;;;20.77;84.92;93576.81;5011196;28;20049;-78
2023/09/02 07:25:09;;;;;;;10.93;8.13;;;;;;;21.20;84.77;93569.41;5012965;28;20046;-78
2023/09/02 07:27:36;;;;;;;12.52;8.05;;;;;;;21.54;82.23;93575.00;5011987;28;20057;-78
2023/09/02 07:30:04;;;;;;;10.07;7.18;;;;;;;21.79;81.64;93560.28;5016530;28;20046;-78
2023/09/02 07:32:31;;;;;;;12.15;8.98;;;;;;;22.29;80.77;93570.63;5018880;28;20046;-78
2023/09/02 07:34:57;;;;;;;11.88;7.18;;;;;;;22.61;79.09;93577.22;5018104;28;20103;-78
2023/09/02 07:37:24;;;;;;;8.82;6.07;;;;;;;22.87;75.22;93581.41;5020380;28;20058;-79
2023/09/02 07:40:00;;;;;;;9.52;7.05;;;;;;;22.62;72.36;93554.41;5016449;28;20451;-79
2023/09/02 07:42:27;;;;;;;7.90;5.45;;;;;;;22.82;72.62;93574.41;5016304;28;20038;-78
2023/09/02 07:44:54;;;;;;;9.00;6.50;;;;;;;23.16;73.64;93581.38;5017221;28;20046;-78
2023/09/02 07:47:21;;;;;;;12.45;6.45;;;;;;;22.95;70.44;93580.78;5017465;28;20045;-78
2023/09/02 07:49:47;;;;;;;12.80;6.13;;;;;;;22.88;71.25;93552.34;5014676;28;20088;-78
2023/09/02 07:52:14;;;;;;;8.45;6.18;;;;;;;23.42;72.67;93586.31;5013772;28;20103;-78
2023/09/02 07:54:41;;;;;;;11.57;6.72;;;;;;;23.62;69.38;93592.38;5017688;28;20057;-78
2023/09/02 07:57:09;;;;;;;9.18;6.45;;;;;;;23.72;68.34;93591.47;5017008;28;20097;-78
2023/09/02 07:59:36;;;;;;;8.73;6.57;;;;;;;23.30;68.66;93583.31;5012819;28;20185;-78
2023/09/02 08:02:02;;;;;;;13.07;7.20;;;;;;;23.34;69.85;93592.19;5012272;28;20100;-78
2023/09/02 08:04:29;;;;;;;9.68;6.80;;;;;;;23.57;68.53;93598.47;5014175;28;20056;-78
2023/09/02 08:06:56;;;;;;;10.90;6.60;;;;;;;23.51;68.17;93594.34;5015452;28;20542;-78
2023/09/02 08:09:22;;;;;;;10.80;6.53;;;;;;;23.80;67.87;93598.72;5016115;28;20045;-79
2023/09/02 08:11:49;;;;;;;8.93;6.45;;;;;;;23.93;68.53;93597.19;5017312;28;20057;-78
2023/09/02 08:14:17;;;;;;;11.35;5.97;;;;;;;23.76;66.25;93574.88;5016804;28;20091;-79
2023/09/02 08:16:44;;;;;;;9.05;6.05;;;;;;;24.25;68.37;93582.59;5013972;28;20124;-80
2023/09/02 08:19:11;;;;;;;14.85;7.05;;;;;;;24.64;68.22;93595.63;5013619;28;20084;-80
2023/09/02 08:21:37;;;;;;;12.50;7.40;;;;;;;25.00;66.02;93595.06;5013306;28;20058;-79
2023/09/02 08:24:04;;;;;;;13.98;7.85;;;;;;;25.14;62.99;93571.41;5013326;28;20122;-78
2023/09/02 08:26:32;;;;;;;11.98;7.45;;;;;;;25.42;59.83;93592.41;5017891;28;20045;-79
2023/09/02 08:28:59;;;;;;;8.18;5.03;;;;;;;25.66;59.05;93596.69;5012338;28;20119;-78
2023/09/02 08:31:27;;;;;;;7.28;5.00;;;;;;;25.80;60.56;93583.50;5012627;28;20056;-79
2023/09/02 08:33:54;;;;;;;7.72;5.55;;;;;;;25.08;60.01;93597.00;5011232;28;20052;-78
2023/09/02 08:36:21;;;;;;;8.25;5.60;;;;;;;24.74;60.46;93576.28;5014810;28;20056;-78
2023/09/02 08:38:47;;;;;;;6.82;4.80;;;;;;;24.99;61.54;93580.34;5015860;28;20049;-78
2023/09/02 08:41:26;;;;;;;7.05;5.13;;;;;;;25.21;60.62;93579.66;5015995;28;20053;-79
2023/09/02 08:43:54;;;;;;;7.93;5.18;;;;;;;25.64;59.28;93590.16;5014528;28;20457;-78
2023/09/02 08:46:25;;;;;;;6.20;4.65;;;;;;;25.68;56.84;93589.28;5012866;28;20073;-79
2023/09/02 08:48:56;;;;;;;8.15;4.80;;;;;;;26.14;59.30;93587.50;5014414;28;20065;-78
2023/09/02 08:51:23;;;;;;;5.70;4.07;;;;;;;26.39;56.37;93585.34;5013033;28;20459;-79
2023/09/02 08:53:51;;;;;;;8.57;5.15;;;;;;;26.76;58.29;93584.47;5012564;28;20096;-79
2023/09/02 08:56:18;;;;;;;6.63;4.45;;;;;;;27.00;56.29;93573.59;5015934;28;20038;-78
2023/09/02 08:58:46;;;;;;;5.53;4.30;;;;;;;27.25;55.01;93579.25;5013059;28;20054;-78
2023/09/02 09:01:17;;;;;;;11.15;5.25;;;;;;;27.50;54.39;93590.19;5013140;28;20422;-78
2023/09/02 09:03:48;;;;;;;8.48;4.15;;;;;;;27.28;52.58;93577.88;5012010;28;20042;-78
2023/09/02 09:06:21;;;;;;;5.70;4.50;;;;;;;27.02;51.56;93546.94;5014719;28;20058;-80
2023/09/02 09:08:50;;;;;;;5.50;4.07;;;;;;;26.81;52.50;93573.81;5012860;28;20100;-80
2023/09/02 09:11:18;;;;;;;5.35;3.97;;;;;;;27.16;50.06;93587.16;5012888;28;20042;-79
2023/09/02 09:13:46;;;;;;;4.60;3.55;;;;;;;26.95;51.17;93568.47;5015168;28;20467;-79
2023/09/02 09:16:17;;;;;;;10.93;3.85;;;;;;;26.83;51.05;93576.16;5014341;28;20109;-79
2023/09/02 09:18:44;;;;;;;6.30;4.25;;;;;;;26.98;51.94;93577.63;5011016;28;20092;-79
2023/09/02 09:21:11;;;;;;;5.05;3.63;;;;;;;25.93;52.82;93578.50;5011855;28;20056;-78
2023/09/02 09:23:39;;;;;;;5.50;4.15;;;;;;;25.64;54.77;93574.38;5011319;28;20053;-78
2023/09/02 09:26:08;;;;;;;5.45;3.97;;;;;;;25.61;54.36;93573.13;5009899;28;20484;-79
2023/09/02 09:28:50;;;;;;;5.15;4.05;;;;;;;25.70;55.19;93552.94;5012155;28;20049;-78
2023/09/02 09:31:18;;;;;;;5.85;4.20;;;;;;;25.59;54.92;93573.41;5007737;28;20125;-78
2023/09/02 09:33:51;;;;;;;9.13;5.13;;;;;;;25.87;56.33;93564.69;5013395;28;20410;-78
2023/09/02 09:36:21;;;;;;;6.38;4.47;;;;;;;26.31;56.92;93554.47;5012061;28;20076;-79
2023/09/02 09:38:54;;;;;;;6.50;4.70;;;;;;;26.91;56.26;93560.38;5011942;28;20045;-78
2023/09/02 09:41:22;;;;;;;7.97;4.43;;;;;;;27.15;52.32;93564.50;5013192;28;20108;-78
2023/09/02 09:44:03;;;;;;;6.53;4.40;;;;;;;26.05;53.71;93541.13;5010498;28;20054;-77
2023/09/02 09:46:30;;;;;;;6.50;4.45;;;;;;;26.38;54.07;93554.81;5006613;28;20050;-79
2023/09/02 09:49:01;;;;;;;9.60;4.10;;;;;;;26.81;52.34;93556.13;5010840;28;20060;-79
2023/09/02 09:51:28;;;;;;;7.30;4.75;;;;;;;26.70;52.28;93473.16;5010425;28;20054;-79
2023/09/02 09:53:58;;;;;;;7.53;4.53;;;;;;;27.27;51.11;93531.50;5015874;28;20103;-78
2023/09/02 09:56:25;;;;;;;6.68;4.80;;;;;;;27.97;52.45;93560.63;5010603;28;20488;-79
2023/09/02 09:58:52;;;;;;;4.57;4.00;;;;;;;28.03;49.55;93557.81;5008202;28;20096;-79
2023/09/02 10:01:23;;;;;;;6.22;3.92;;;;;;;28.09;47.69;93556.56;5014790;28;20153;-78
2023/09/02 10:03:51;;;;;;;5.45;4.03;;;;;;;28.52;48.22;93545.16;5009581;28;20057;-79
2023/09/02 10:06:18;;;;;;;8.13;4.05;;;;;;;28.78;46.44;93549.59;5012865;28;20053;-79
2023/09/02 10:08:58;;;;;;;5.03;3.80;;;;;;;28.85;46.06;93545.69;5008100;28;20055;-80
2023/09/02 10:11:26;;;;;;;7.40;4.22;;;;;;;29.24;48.12;93541.16;5011984;28;20052;-79
2023/09/02 10:13:54;;;;;;;5.35;4.32;;;;;;;29.14;45.68;93515.09;5007648;28;20053;-79
2023/09/02 10:16:22;;;;;;;6.07;3.88;;;;;;;29.54;46.09;93545.69;5013924;28;20054;-79
2023/09/02 10:18:49;;;;;;;6.30;3.78;;;;;;;29.81;44.39;93533.06;5010056;28;20112;-79
2023/09/02 10:21:17;;;;;;;6.85;4.20;;;;;;;30.26;45.39;93537.66;5008913;28;20053;-79
2023/09/02 10:23:50;;;;;;;6.57;3.78;;;;;;;30.57;44.80;93535.63;5009820;28;20053;-79
2023/09/02 10:26:25;;;;;;;6.82;3.88;;;;;;;30.62;43.12;93500.19;5010740;28;20140;-82
2023/09/02 10:29:00;;;;;;;6.63;3.95;;;;;;;30.68;42.45;93525.38;5008572;28;20085;-79
2023/09/02 10:31:32;;;;;;;5.10;3.83;;;;;;;30.75;42.91;93525.66;5011385;28;20687;-79
2023/09/02 10:34:05;;;;;;;6.15;4.32;;;;;;;30.12;42.54;93522.06;5011010;28;20046;-79
2023/09/02 10:36:34;;;;;;;8.23;3.95;;;;;;;30.20;44.68;93520.44;5009039;28;20049;-79
2023/09/02 10:39:04;;;;;;;4.88;4.03;;;;;;;30.49;42.73;93521.38;5009699;28;20049;-80
2023/09/02 10:41:33;;;;;;;5.72;4.40;;;;;;;30.54;43.24;93521.16;5015922;28;20592;-79
2023/09/02 10:44:03;;;;;;;6.00;3.85;;;;;;;29.49;42.56;93522.06;5013923;28;20136;-78
2023/09/02 10:46:33;;;;;;;5.78;4.07;;;;;;;29.72;43.91;93523.28;5013473;28;20049;-79
2023/09/02 10:49:00;;;;;;;6.15;3.92;;;;;;;29.60;43.83;93500.19;5018157;28;20119;-79
2023/09/02 10:51:27;;;;;;;5.80;3.97;;;;;;;29.91;44.31;93521.28;5016402;28;20452;-79
2023/09/02 10:53:59;;;;;;;7.65;4.35;;;;;;;29.70;43.94;93522.84;5014590;28;20088;-80
2023/09/02 10:56:27;;;;;;;5.88;4.57;;;;;;;29.34;45.47;93521.50;5016266;28;20057;-80
2023/09/02 10:58:55;;;;;;;7.43;5.22;;;;;;;28.91;45.55;93525.94;5016852;28;20073;-78
2023/09/02 11:01:23;;;;;;;7.05;4.90;;;;;;;28.18;48.00;93517.72;5021783;28;20080;-79
2023/09/02 11:03:52;;;;;;;6.10;4.10;;;;;;;27.85;47.20;93453.00;5027640;28;20084;-79
2023/09/02 11:06:19;;;;;;;7.88;5.00;;;;;;;28.11;48.54;93520.84;5019396;28;20112;-79
2023/09/02 11:08:48;;;;;;;8.05;4.90;;;;;;;27.67;48.60;93514.81;5012332;28;20116;-79
2023/09/02 11:11:15;;;;;;;6.57;4.45;;;;;;;27.24;49.25;93522.34;5013427;28;20046;-79
2023/09/02 11:14:19;;;;;;;5.78;4.60;;;;;;;27.71;49.55;93515.72;5013956;28;20045;-80
2023/09/02 11:17:26;;;;;;;6.53;4.57;;;;;;;28.08;47.59;93504.81;5013463;28;20049;-79
2023/09/02 11:20:00;;;;;;;6.45;4.93;;;;;;;28.33;46.94;93499.84;5017745;28;20519;-78
2023/09/02 11:22:50;;;;;;;5.90;4.10;;;;;;;28.64;46.12;93514.66;5011853;28;20503;-79
2023/09/02 11:25:35;;;;;;;5.85;4.63;;;;;;;28.35;47.30;93503.72;5014702;28;20423;-78
2023/09/02 11:28:03;;;;;;;9.20;5.22;;;;;;;28.39;46.96;93509.16;5012832;28;20100;-78